sensor_id;sensor_type;location;lat;lon;timestamp;pressure;altitude;pressure_sealevel;temperature;humidity
69848;BME280;57143;55.940;37.496;2022-12-04T00:01:03;102323.56;;;-7.17;100.00
69848;BME280;57143;55.940;37.496;2022-12-04T00:03:31;102318.53;;;-7.26;100.00
69848;BME280;57143;55.940;37.496;2022-12-04T00:06:05;102321.13;;;-7.25;100.00
69848;BME280;57143;55.940;37.496;2022-12-04T00:08:32;102316.75;;;-7.26;100.00
69848;BME280;57143;55.940;37.496;2022-12-04T00:11:00;102306.47;;;-7.35;100.00
69848;BME280;57143;55.940;37.496;2022-12-04T00:13:27;102317.59;;;-7.24;100.00
69848;BME280;57143;55.940;37.496;2022-12-04T00:15:54;102301.06;;;-7.29;100.00
69848;BME280;57143;55.940;37.496;2022-12-04T00:18:23;102307.84;;;-7.20;100.00
69848;BME280;57143;55.940;37.496;2022-12-04T00:20:50;102309.78;;;-7.28;100.00
69848;BME280;57143;55.940;37.496;2022-12-04T00:23:17;102305.63;;;-7.35;100.00
69848;BME280;57143;55.940;37.496;2022-12-04T00:25:44;102301.28;;;-7.38;100.00
69848;BME280;57143;55.940;37.496;2022-12-04T00:28:14;102309.84;;;-7.30;100.00
69848;BME280;57143;55.940;37.496;2022-12-04T00:30:42;102303.78;;;-7.32;100.00
69848;BME280;57143;55.940;37.496;2022-12-04T00:33:10;102305.41;;;-7.28;100.00
69848;BME280;57143;55.940;37.496;2022-12-04T00:35:39;102308.84;;;-7.26;100.00
69848;BME280;57143;55.940;37.496;2022-12-04T00:38:06;102311.63;;;-7.30;100.00
69848;BME280;57143;55.940;37.496;2022-12-04T00:40:33;102309.00;;;-7.30;100.00
69848;BME280;57143;55.940;37.496;2022-12-04T00:43:00;102302.22;;;-7.39;100.00
69848;BME280;57143;55.940;37.496;2022-12-04T00:45:27;102312.69;;;-7.37;100.00
69848;BME280;57143;55.940;37.496;2022-12-04T00:47:54;102317.22;;;-7.42;100.00
69848;BME280;57143;55.940;37.496;2022-12-04T00:50:22;102298.09;;;-7.50;100.00
69848;BME280;57143;55.940;37.496;2022-12-04T00:52:50;102308.78;;;-7.55;100.00
69848;BME280;57143;55.940;37.496;2022-12-04T00:55:17;102318.16;;;-7.45;100.00
69848;BME280;57143;55.940;37.496;2022-12-04T00:57:44;102307.81;;;-7.52;100.00
69848;BME280;57143;55.940;37.496;2022-12-04T01:00:12;102311.53;;;-7.59;100.00
69848;BME280;57143;55.940;37.496;2022-12-04T01:02:39;102313.31;;;-7.60;100.00
69848;BME280;57143;55.940;37.496;2022-12-04T01:05:07;102311.53;;;-7.59;100.00
69848;BME280;57143;55.940;37.496;2022-12-04T01:07:34;102295.97;;;-7.68;100.00
69848;BME280;57143;55.940;37.496;2022-12-04T01:10:04;102323.03;;;-7.63;100.00
69848;BME280;57143;55.940;37.496;2022-12-04T01:12:32;102323.19;;;-7.69;100.00
69848;BME280;57143;55.940;37.496;2022-12-04T01:14:59;102317.06;;;-7.70;100.00
69848;BME280;57143;55.940;37.496;2022-12-04T01:17:26;102324.06;;;-7.69;100.00
69848;BME280;57143;55.940;37.496;2022-12-04T01:19:54;102326.72;;;-7.70;100.00
69848;BME280;57143;55.940;37.496;2022-12-04T01:22:21;102332.03;;;-7.72;100.00
69848;BME280;57143;55.940;37.496;2022-12-04T01:24:48;102325.19;;;-7.79;100.00
69848;BME280;57143;55.940;37.496;2022-12-04T01:27:17;102323.44;;;-7.78;100.00
69848;BME280;57143;55.940;37.496;2022-12-04T01:29:44;102333.22;;;-7.85;100.00
69848;BME280;57143;55.940;37.496;2022-12-04T01:32:11;102327.97;;;-7.85;100.00
69848;BME280;57143;55.940;37.496;2022-12-04T01:34:38;102332.34;;;-7.84;100.00
69848;BME280;57143;55.940;37.496;2022-12-04T01:37:05;102337.66;;;-7.85;100.00
69848;BME280;57143;55.940;37.496;2022-12-04T01:39:34;102332.44;;;-7.88;100.00
69848;BME280;57143;55.940;37.496;2022-12-04T01:42:01;102324.66;;;-7.93;100.00
69848;BME280;57143;55.940;37.496;2022-12-04T01:44:31;102315.19;;;-8.00;100.00
69848;BME280;57143;55.940;37.496;2022-12-04T01:46:59;102337.69;;;-7.87;100.00
69848;BME280;57143;55.940;37.496;2022-12-04T01:49:30;102337.56;;;-7.82;100.00
69848;BME280;57143;55.940;37.496;2022-12-04T01:52:03;102318.78;;;-8.04;100.00
69848;BME280;57143;55.940;37.496;2022-12-04T01:54:36;102328.34;;;-8.00;100.00
69848;BME280;57143;55.940;37.496;2022-12-04T01:57:07;102345.75;;;-7.94;100.00
69848;BME280;57143;55.940;37.496;2022-12-04T01:59:40;102338.03;;;-8.02;100.00
69848;BME280;57143;55.940;37.496;2022-12-04T02:02:11;102338.97;;;-8.04;100.00
69848;BME280;57143;55.940;37.496;2022-12-04T02:04:40;102338.06;;;-8.03;100.00
69848;BME280;57143;55.940;37.496;2022-12-04T02:07:08;102347.13;;;-8.15;100.00
69848;BME280;57143;55.940;37.496;2022-12-04T02:09:36;102331.56;;;-8.24;100.00
69848;BME280;57143;55.940;37.496;2022-12-04T02:12:08;102325.28;;;-8.18;100.00
69848;BME280;57143;55.940;37.496;2022-12-04T02:14:43;102264.94;;;-8.60;100.00
69848;BME280;57143;55.940;37.496;2022-12-04T02:17:18;102337.44;;;-8.13;100.00
69848;BME280;57143;55.940;37.496;2022-12-04T02:19:58;102336.59;;;-8.15;100.00
69848;BME280;57143;55.940;37.496;2022-12-04T02:22:41;102264.00;;;-8.59;100.00
69848;BME280;57143;55.940;37.496;2022-12-04T02:25:21;102344.56;;;-8.18;100.00
69848;BME280;57143;55.940;37.496;2022-12-04T02:28:01;102342.69;;;-8.13;100.00
69848;BME280;57143;55.940;37.496;2022-12-04T02:30:30;102326.41;;;-8.27;100.00
69848;BME280;57143;55.940;37.496;2022-12-04T02:33:05;102342.91;;;-8.22;100.00
69848;BME280;57143;55.940;37.496;2022-12-04T02:35:38;102355.13;;;-8.21;100.00
69848;BME280;57143;55.940;37.496;2022-12-04T02:38:12;102327.50;;;-8.37;100.00
69848;BME280;57143;55.940;37.496;2022-12-04T02:40:49;102344.75;;;-8.25;100.00
69848;BME280;57143;55.940;37.496;2022-12-04T02:43:20;102320.66;;;-8.44;100.00
69848;BME280;57143;55.940;37.496;2022-12-04T02:45:55;102354.28;;;-8.23;100.00
69848;BME280;57143;55.940;37.496;2022-12-04T02:48:27;102362.25;;;-8.24;100.00
69848;BME280;57143;55.940;37.496;2022-12-04T02:50:58;102350.38;;;-8.41;100.00
69848;BME280;57143;55.940;37.496;2022-12-04T02:53:32;102364.09;;;-8.26;100.00
69848;BME280;57143;55.940;37.496;2022-12-04T02:56:04;102361.50;;;-8.29;100.00
69848;BME280;57143;55.940;37.496;2022-12-04T02:58:38;102368.47;;;-8.27;100.00
69848;BME280;57143;55.940;37.496;2022-12-04T03:01:10;102328.69;;;-8.52;100.00
69848;BME280;57143;55.940;37.496;2022-12-04T03:03:51;102351.94;;;-8.32;100.00
69848;BME280;57143;55.940;37.496;2022-12-04T03:06:23;102367.66;;;-8.30;100.00
69848;BME280;57143;55.940;37.496;2022-12-04T03:08:55;102366.91;;;-8.36;100.00
69848;BME280;57143;55.940;37.496;2022-12-04T03:11:27;102346.97;;;-8.47;100.00
69848;BME280;57143;55.940;37.496;2022-12-04T03:14:01;102360.06;;;-8.43;100.00
69848;BME280;57143;55.940;37.496;2022-12-04T03:16:36;102373.22;;;-8.44;100.00
69848;BME280;57143;55.940;37.496;2022-12-04T03:19:07;102378.47;;;-8.43;100.00
69848;BME280;57143;55.940;37.496;2022-12-04T03:21:39;102313.59;;;-8.82;100.00
69848;BME280;57143;55.940;37.496;2022-12-04T03:24:16;102333.44;;;-8.69;100.00
69848;BME280;57143;55.940;37.496;2022-12-04T03:26:46;102377.63;;;-8.45;100.00
69848;BME280;57143;55.940;37.496;2022-12-04T03:29:19;102373.19;;;-8.43;100.00
69848;BME280;57143;55.940;37.496;2022-12-04T03:31:50;102375.91;;;-8.47;100.00
69848;BME280;57143;55.940;37.496;2022-12-04T03:34:25;102381.22;;;-8.50;100.00
69848;BME280;57143;55.940;37.496;2022-12-04T03:36:55;102385.63;;;-8.51;100.00
69848;BME280;57143;55.940;37.496;2022-12-04T03:39:29;102366.50;;;-8.57;100.00
69848;BME280;57143;55.940;37.496;2022-12-04T03:42:02;102381.22;;;-8.50;100.00
69848;BME280;57143;55.940;37.496;2022-12-04T03:44:37;102368.38;;;-8.64;100.00
69848;BME280;57143;55.940;37.496;2022-12-04T03:47:08;102380.41;;;-8.52;100.00
69848;BME280;57143;55.940;37.496;2022-12-04T03:49:42;102351.91;;;-8.72;100.00
69848;BME280;57143;55.940;37.496;2022-12-04T03:52:16;102373.63;;;-8.64;100.00
69848;BME280;57143;55.940;37.496;2022-12-04T03:54:49;102373.56;;;-8.61;100.00
69848;BME280;57143;55.940;37.496;2022-12-04T03:57:19;102393.66;;;-8.57;100.00
69848;BME280;57143;55.940;37.496;2022-12-04T03:59:54;102379.91;;;-8.71;100.00
69848;BME280;57143;55.940;37.496;2022-12-04T04:02:27;102357.38;;;-8.82;100.00
69848;BME280;57143;55.940;37.496;2022-12-04T04:04:58;102366.88;;;-8.75;100.00
69848;BME280;57143;55.940;37.496;2022-12-04T04:07:32;102390.34;;;-8.66;100.00
69848;BME280;57143;55.940;37.496;2022-12-04T04:10:03;102389.41;;;-8.64;100.00
69848;BME280;57143;55.940;37.496;2022-12-04T04:12:35;102397.50;;;-8.74;100.00
69848;BME280;57143;55.940;37.496;2022-12-04T04:15:08;102393.16;;;-8.75;100.00
69848;BME280;57143;55.940;37.496;2022-12-04T04:17:56;102358.44;;;-8.91;100.00
69848;BME280;57143;55.940;37.496;2022-12-04T04:20:43;102375.00;;;-8.87;100.00
69848;BME280;57143;55.940;37.496;2022-12-04T04:23:33;102391.59;;;-8.84;100.00
69848;BME280;57143;55.940;37.496;2022-12-04T04:26:20;102397.53;;;-8.76;100.00
69848;BME280;57143;55.940;37.496;2022-12-04T04:28:48;102398.44;;;-8.78;100.00
69848;BME280;57143;55.940;37.496;2022-12-04T04:31:24;102393.28;;;-8.83;100.00
69848;BME280;57143;55.940;37.496;2022-12-04T04:33:58;102394.19;;;-8.82;100.00
69848;BME280;57143;55.940;37.496;2022-12-04T04:36:33;102367.41;;;-9.01;100.00
69848;BME280;57143;55.940;37.496;2022-12-04T04:39:10;102400.38;;;-8.86;100.00
69848;BME280;57143;55.940;37.496;2022-12-04T04:41:45;102410.84;;;-8.85;100.00
69848;BME280;57143;55.940;37.496;2022-12-04T04:44:18;102359.78;;;-9.16;100.00
69848;BME280;57143;55.940;37.496;2022-12-04T04:46:51;102409.03;;;-8.81;100.00
69848;BME280;57143;55.940;37.496;2022-12-04T04:49:21;102385.84;;;-9.05;100.00
69848;BME280;57143;55.940;37.496;2022-12-04T04:51:49;102414.34;;;-8.84;100.00
69848;BME280;57143;55.940;37.496;2022-12-04T04:54:18;102401.34;;;-8.92;100.00
69848;BME280;57143;55.940;37.496;2022-12-04T04:56:46;102412.63;;;-8.85;100.00
69848;BME280;57143;55.940;37.496;2022-12-04T04:59:13;102418.66;;;-8.80;100.00
69848;BME280;57143;55.940;37.496;2022-12-04T05:01:42;102367.66;;;-9.16;100.00
69848;BME280;57143;55.940;37.496;2022-12-04T05:04:12;102425.72;;;-8.82;100.00
69848;BME280;57143;55.940;37.496;2022-12-04T05:06:39;102404.91;;;-8.94;100.00
69848;BME280;57143;55.940;37.496;2022-12-04T05:09:06;102426.50;;;-8.79;100.00
69848;BME280;57143;55.940;37.496;2022-12-04T05:11:33;102425.72;;;-8.82;100.00
69848;BME280;57143;55.940;37.496;2022-12-04T05:14:01;102424.75;;;-8.80;100.00
69848;BME280;57143;55.940;37.496;2022-12-04T05:16:28;102391.88;;;-9.00;100.00
69848;BME280;57143;55.940;37.496;2022-12-04T05:18:55;102421.34;;;-8.85;100.00
69848;BME280;57143;55.940;37.496;2022-12-04T05:21:41;102420.66;;;-8.93;100.00
69848;BME280;57143;55.940;37.496;2022-12-04T05:24:08;102420.69;;;-8.94;100.00
69848;BME280;57143;55.940;37.496;2022-12-04T05:26:35;102422.53;;;-8.99;100.00
69848;BME280;57143;55.940;37.496;2022-12-04T05:29:02;102413.78;;;-9.00;100.00
69848;BME280;57143;55.940;37.496;2022-12-04T05:31:29;102421.50;;;-8.91;100.00
69848;BME280;57143;55.940;37.496;2022-12-04T05:33:57;102425.16;;;-8.99;100.00
69848;BME280;57143;55.940;37.496;2022-12-04T05:36:24;102416.31;;;-8.95;100.00
69848;BME280;57143;55.940;37.496;2022-12-04T05:38:52;102408.59;;;-9.03;100.00
69848;BME280;57143;55.940;37.496;2022-12-04T05:41:19;102430.31;;;-8.95;100.00
69848;BME280;57143;55.940;37.496;2022-12-04T05:43:46;102420.75;;;-8.99;100.00
69848;BME280;57143;55.940;37.496;2022-12-04T05:46:14;102430.34;;;-8.96;100.00
69848;BME280;57143;55.940;37.496;2022-12-04T05:48:41;102426.91;;;-9.00;100.00
69848;BME280;57143;55.940;37.496;2022-12-04T05:51:09;102431.06;;;-8.88;100.00
69848;BME280;57143;55.940;37.496;2022-12-04T05:53:37;102435.41;;;-8.86;100.00
69848;BME280;57143;55.940;37.496;2022-12-04T05:56:09;102422.34;;;-8.90;100.00
69848;BME280;57143;55.940;37.496;2022-12-04T05:58:37;102431.78;;;-8.79;100.00
69848;BME280;57143;55.940;37.496;2022-12-04T06:01:09;102437.00;;;-8.77;100.00
69848;BME280;57143;55.940;37.496;2022-12-04T06:03:36;102442.19;;;-8.74;100.00
69848;BME280;57143;55.940;37.496;2022-12-04T06:06:04;102443.84;;;-8.69;100.00
69848;BME280;57143;55.940;37.496;2022-12-04T06:08:36;102434.75;;;-8.53;100.00
69848;BME280;57143;55.940;37.496;2022-12-04T06:11:10;102441.53;;;-8.41;100.00
69848;BME280;57143;55.940;37.496;2022-12-04T06:13:39;102433.84;;;-8.52;100.00
69848;BME280;57143;55.940;37.496;2022-12-04T06:16:12;102432.03;;;-8.48;100.00
69848;BME280;57143;55.940;37.496;2022-12-04T06:18:40;102439.81;;;-8.44;100.00
69848;BME280;57143;55.940;37.496;2022-12-04T06:21:08;102450.00;;;-8.27;100.00
69848;BME280;57143;55.940;37.496;2022-12-04T06:23:35;102439.44;;;-8.25;100.00
69848;BME280;57143;55.940;37.496;2022-12-04T06:26:03;102439.25;;;-8.19;100.00
69848;BME280;57143;55.940;37.496;2022-12-04T06:28:32;102442.69;;;-8.16;100.00
69848;BME280;57143;55.940;37.496;2022-12-04T06:31:00;102451.47;;;-8.15;100.00
69848;BME280;57143;55.940;37.496;2022-12-04T06:33:28;102445.16;;;-8.08;100.00
69848;BME280;57143;55.940;37.496;2022-12-04T06:35:59;102451.88;;;-7.94;100.00
69848;BME280;57143;55.940;37.496;2022-12-04T06:38:26;102446.50;;;-7.89;100.00
69848;BME280;57143;55.940;37.496;2022-12-04T06:40:53;102448.19;;;-7.85;100.00
69848;BME280;57143;55.940;37.496;2022-12-04T06:43:20;102441.66;;;-8.09;100.00
69848;BME280;57143;55.940;37.496;2022-12-04T06:45:58;102445.75;;;-7.94;100.00
69848;BME280;57143;55.940;37.496;2022-12-04T06:48:25;102455.16;;;-7.84;100.00
69848;BME280;57143;55.940;37.496;2022-12-04T06:50:57;102461.22;;;-7.81;100.00
69848;BME280;57143;55.940;37.496;2022-12-04T06:53:24;102462.84;;;-7.75;100.00
69848;BME280;57143;55.940;37.496;2022-12-04T06:55:55;102470.72;;;-7.74;100.00
69848;BME280;57143;55.940;37.496;2022-12-04T06:58:22;102435.59;;;-8.12;100.00
69848;BME280;57143;55.940;37.496;2022-12-04T07:00:51;102475.41;;;-7.88;100.00
69848;BME280;57143;55.940;37.496;2022-12-04T07:03:19;102473.47;;;-7.80;100.00
69848;BME280;57143;55.940;37.496;2022-12-04T07:05:46;102447.94;;;-7.75;100.00
69848;BME280;57143;55.940;37.496;2022-12-04T07:08:13;102481.44;;;-7.45;100.00
69848;BME280;57143;55.940;37.496;2022-12-04T07:10:41;102481.31;;;-7.39;100.00
69848;BME280;57143;55.940;37.496;2022-12-04T07:13:09;102486.41;;;-7.33;100.00
69848;BME280;57143;55.940;37.496;2022-12-04T07:15:36;102484.13;;;-7.11;100.00
69848;BME280;57143;55.940;37.496;2022-12-04T07:18:05;102471.75;;;-7.07;100.00
69848;BME280;57143;55.940;37.496;2022-12-04T07:20:32;102492.03;;;-6.77;100.00
69848;BME280;57143;55.940;37.496;2022-12-04T07:23:00;102493.88;;;-6.47;100.00
69848;BME280;57143;55.940;37.496;2022-12-04T07:25:27;102476.69;;;-6.31;100.00
69848;BME280;57143;55.940;37.496;2022-12-04T07:27:55;102488.81;;;-5.95;100.00
69848;BME280;57143;55.940;37.496;2022-12-04T07:30:22;102493.91;;;-6.18;100.00
69848;BME280;57143;55.940;37.496;2022-12-04T07:32:50;102504.22;;;-6.11;100.00
69848;BME280;57143;55.940;37.496;2022-12-04T07:35:18;102484.59;;;-6.31;100.00
69848;BME280;57143;55.940;37.496;2022-12-04T07:37:45;102503.53;;;-6.17;100.00
69848;BME280;57143;55.940;37.496;2022-12-04T07:40:13;102507.59;;;-6.06;100.00
69848;BME280;57143;55.940;37.496;2022-12-04T07:42:40;102519.34;;;-5.86;100.00
69848;BME280;57143;55.940;37.496;2022-12-04T07:45:08;102519.41;;;-5.88;100.00
69848;BME280;57143;55.940;37.496;2022-12-04T07:47:35;102514.09;;;-6.17;100.00
69848;BME280;57143;55.940;37.496;2022-12-04T07:50:03;102523.47;;;-6.07;100.00
69848;BME280;57143;55.940;37.496;2022-12-04T07:52:36;102532.81;;;-6.25;100.00
69848;BME280;57143;55.940;37.496;2022-12-04T07:55:04;102533.84;;;-6.30;100.00
69848;BME280;57143;55.940;37.496;2022-12-04T07:57:31;102541.91;;;-6.36;100.00
69848;BME280;57143;55.940;37.496;2022-12-04T07:59:58;102552.38;;;-6.33;100.00
69848;BME280;57143;55.940;37.496;2022-12-04T08:02:26;102546.94;;;-6.27;100.00
69848;BME280;57143;55.940;37.496;2022-12-04T08:04:54;102538.69;;;-6.15;100.00
69848;BME280;57143;55.940;37.496;2022-12-04T08:07:21;102543.31;;;-6.23;100.00
69848;BME280;57143;55.940;37.496;2022-12-04T08:09:49;102543.31;;;-6.23;100.00
69848;BME280;57143;55.940;37.496;2022-12-04T08:12:16;102529.00;;;-6.47;100.00
69848;BME280;57143;55.940;37.496;2022-12-04T08:14:43;102556.84;;;-6.69;100.00
69848;BME280;57143;55.940;37.496;2022-12-04T08:17:10;102554.50;;;-6.81;100.00
69848;BME280;57143;55.940;37.496;2022-12-04T08:19:38;102535.78;;;-7.04;100.00
69848;BME280;57143;55.940;37.496;2022-12-04T08:22:05;102569.03;;;-7.00;100.00
69848;BME280;57143;55.940;37.496;2022-12-04T08:24:32;102553.94;;;-6.92;100.00
69848;BME280;57143;55.940;37.496;2022-12-04T08:27:01;102550.28;;;-6.88;100.00
69848;BME280;57143;55.940;37.496;2022-12-04T08:29:28;102562.84;;;-6.97;100.00
69848;BME280;57143;55.940;37.496;2022-12-04T08:31:55;102567.50;;;-7.08;100.00
69848;BME280;57143;55.940;37.496;2022-12-04T08:34:22;102553.34;;;-7.04;100.00
69848;BME280;57143;55.940;37.496;2022-12-04T08:36:50;102574.31;;;-7.00;100.00
69848;BME280;57143;55.940;37.496;2022-12-04T08:39:17;102564.56;;;-6.96;100.00
69848;BME280;57143;55.940;37.496;2022-12-04T08:41:44;102561.53;;;-6.80;100.00
69848;BME280;57143;55.940;37.496;2022-12-04T08:44:15;102568.56;;;-6.80;100.00
69848;BME280;57143;55.940;37.496;2022-12-04T08:46:42;102571.16;;;-6.79;100.00
69848;BME280;57143;55.940;37.496;2022-12-04T08:49:09;102560.78;;;-6.86;100.00
69848;BME280;57143;55.940;37.496;2022-12-04T08:51:37;102567.56;;;-6.76;100.00
69848;BME280;57143;55.940;37.496;2022-12-04T08:54:06;102560.50;;;-6.74;100.00
69848;BME280;57143;55.940;37.496;2022-12-04T08:56:34;102559.88;;;-6.84;100.00
69848;BME280;57143;55.940;37.496;2022-12-04T08:59:02;102544.44;;;-7.00;100.00
69848;BME280;57143;55.940;37.496;2022-12-04T09:01:30;102566.03;;;-6.85;100.00
69848;BME280;57143;55.940;37.496;2022-12-04T09:03:58;102570.38;;;-6.82;100.00
69848;BME280;57143;55.940;37.496;2022-12-04T09:06:25;102561.50;;;-6.78;100.00
69848;BME280;57143;55.940;37.496;2022-12-04T09:08:52;102571.78;;;-6.68;100.00
69848;BME280;57143;55.940;37.496;2022-12-04T09:11:21;102573.94;;;-6.85;100.00
69848;BME280;57143;55.940;37.496;2022-12-04T09:13:49;102558.06;;;-6.82;100.00
69848;BME280;57143;55.940;37.496;2022-12-04T09:16:19;102561.44;;;-6.77;100.00
69848;BME280;57143;55.940;37.496;2022-12-04T09:18:48;102574.28;;;-6.63;100.00
69848;BME280;57143;55.940;37.496;2022-12-04T09:21:18;102534.34;;;-6.82;100.00
69848;BME280;57143;55.940;37.496;2022-12-04T09:23:46;102549.63;;;-6.62;100.00
69848;BME280;57143;55.940;37.496;2022-12-04T09:26:17;102572.47;;;-6.61;100.00
69848;BME280;57143;55.940;37.496;2022-12-04T09:28:45;102575.78;;;-6.53;100.00
69848;BME280;57143;55.940;37.496;2022-12-04T09:31:12;102580.97;;;-6.50;100.00
69848;BME280;57143;55.940;37.496;2022-12-04T09:33:39;102566.72;;;-6.43;100.00
69848;BME280;57143;55.940;37.496;2022-12-04T09:36:08;102561.19;;;-6.34;100.00
69848;BME280;57143;55.940;37.496;2022-12-04T09:38:41;102551.81;;;-6.44;100.00
69848;BME280;57143;55.940;37.496;2022-12-04T09:44:12;102565.56;;;-6.33;100.00
69848;BME280;57143;55.940;37.496;2022-12-04T09:46:48;102535.88;;;-6.41;100.00
69848;BME280;57143;55.940;37.496;2022-12-04T09:49:20;102554.91;;;-6.29;100.00
69848;BME280;57143;55.940;37.496;2022-12-04T09:51:50;102578.13;;;-6.11;100.00
69848;BME280;57143;55.940;37.496;2022-12-04T09:54:19;102518.84;;;-6.30;100.00
69848;BME280;57143;55.940;37.496;2022-12-04T09:56:52;102562.28;;;-6.09;100.00
69848;BME280;57143;55.940;37.496;2022-12-04T09:59:22;102571.91;;;-6.08;100.00
69848;BME280;57143;55.940;37.496;2022-12-04T10:01:54;102569.88;;;-5.99;100.00
69848;BME280;57143;55.940;37.496;2022-12-04T10:04:24;102567.47;;;-6.06;100.00
69848;BME280;57143;55.940;37.496;2022-12-04T10:06:58;102571.81;;;-6.05;100.00
69848;BME280;57143;55.940;37.496;2022-12-04T10:09:31;102573.56;;;-6.04;100.00
69848;BME280;57143;55.940;37.496;2022-12-04T10:12:12;102571.03;;;-6.09;100.00
69848;BME280;57143;55.940;37.496;2022-12-04T10:15:13;102572.75;;;-6.06;100.00
69848;BME280;57143;55.940;37.496;2022-12-04T10:18:05;102578.53;;;-5.94;100.00
69848;BME280;57143;55.940;37.496;2022-12-04T10:20:56;102586.16;;;-5.83;100.00
69848;BME280;57143;55.940;37.496;2022-12-04T10:23:37;102585.41;;;-5.88;100.00
69848;BME280;57143;55.940;37.496;2022-12-04T10:26:15;102567.97;;;-5.94;100.00
69848;BME280;57143;55.940;37.496;2022-12-04T10:28:46;102567.84;;;-5.89;100.00
69848;BME280;57143;55.940;37.496;2022-12-04T10:31:14;102578.31;;;-5.86;100.00
69848;BME280;57143;55.940;37.496;2022-12-04T10:33:44;102553.19;;;-5.99;100.00
69848;BME280;57143;55.940;37.496;2022-12-04T10:36:16;102562.97;;;-6.03;100.00
69848;BME280;57143;55.940;37.496;2022-12-04T10:38:47;102577.88;;;-6.02;100.00
69848;BME280;57143;55.940;37.496;2022-12-04T10:41:23;102582.34;;;-6.04;100.00
69848;BME280;57143;55.940;37.496;2022-12-04T10:43:51;102566.53;;;-6.05;100.00
69848;BME280;57143;55.940;37.496;2022-12-04T10:46:21;102582.81;;;-5.89;100.00
69848;BME280;57143;55.940;37.496;2022-12-04T10:48:51;102583.06;;;-5.99;100.00
69848;BME280;57143;55.940;37.496;2022-12-04T10:51:21;102577.06;;;-6.04;100.00
69848;BME280;57143;55.940;37.496;2022-12-04T10:53:50;102569.47;;;-6.16;100.00
69848;BME280;57143;55.940;37.496;2022-12-04T10:56:19;102564.44;;;-6.23;100.00
69848;BME280;57143;55.940;37.496;2022-12-04T10:58:55;102579.28;;;-6.21;100.00
69848;BME280;57143;55.940;37.496;2022-12-04T11:01:22;102586.94;;;-6.10;100.00
69848;BME280;57143;55.940;37.496;2022-12-04T11:03:56;102583.41;;;-6.11;100.00
69848;BME280;57143;55.940;37.496;2022-12-04T11:06:25;102582.72;;;-6.17;100.00
69848;BME280;57143;55.940;37.496;2022-12-04T11:08:55;102584.38;;;-6.13;100.00
69848;BME280;57143;55.940;37.496;2022-12-04T11:11:25;102584.56;;;-6.21;100.00
69848;BME280;57143;55.940;37.496;2022-12-04T11:14:01;102586.13;;;-6.14;100.00
69848;BME280;57143;55.940;37.496;2022-12-04T11:16:33;102587.94;;;-6.16;100.00
69848;BME280;57143;55.940;37.496;2022-12-04T11:19:02;102598.44;;;-6.13;100.00
69848;BME280;57143;55.940;37.496;2022-12-04T11:21:30;102617.84;;;-6.15;100.00
69848;BME280;57143;55.940;37.496;2022-12-04T11:23:59;102589.38;;;-6.36;100.00
69848;BME280;57143;55.940;37.496;2022-12-04T11:26:32;102647.16;;;-6.26;100.00
69848;BME280;57143;55.940;37.496;2022-12-04T11:29:00;102646.31;;;-6.28;100.00
69848;BME280;57143;55.940;37.496;2022-12-04T11:31:29;102641.19;;;-6.32;100.00
69848;BME280;57143;55.940;37.496;2022-12-04T11:33:59;102650.75;;;-6.28;100.00
69848;BME280;57143;55.940;37.496;2022-12-04T11:36:29;102634.06;;;-6.29;100.00
69848;BME280;57143;55.940;37.496;2022-12-04T11:39:06;102632.44;;;-6.34;100.00
69848;BME280;57143;55.940;37.496;2022-12-04T11:41:38;102641.88;;;-6.26;100.00
69848;BME280;57143;55.940;37.496;2022-12-04T11:44:06;102642.06;;;-6.33;100.00
69848;BME280;57143;55.940;37.496;2022-12-04T11:46:33;102642.28;;;-6.41;100.00
69848;BME280;57143;55.940;37.496;2022-12-04T11:49:00;102640.53;;;-6.42;100.00
69848;BME280;57143;55.940;37.496;2022-12-04T11:51:38;102636.31;;;-6.49;100.00
69848;BME280;57143;55.940;37.496;2022-12-04T11:54:20;102600.25;;;-6.82;100.00
69848;BME280;57143;55.940;37.496;2022-12-04T11:56:54;102637.22;;;-6.50;100.00
69848;BME280;57143;55.940;37.496;2022-12-04T11:59:39;102632.13;;;-6.56;100.00
69848;BME280;57143;55.940;37.496;2022-12-04T12:05:35;102630.59;;;-6.66;100.00
69848;BME280;57143;55.940;37.496;2022-12-04T12:08:18;102627.16;;;-6.68;100.00
69848;BME280;57143;55.940;37.496;2022-12-04T12:10:55;102621.09;;;-6.73;100.00
69848;BME280;57143;55.940;37.496;2022-12-04T12:13:31;102609.09;;;-6.84;100.00
69848;BME280;57143;55.940;37.496;2022-12-04T12:16:06;102614.25;;;-6.80;100.00
69848;BME280;57143;55.940;37.496;2022-12-04T12:18:45;102618.75;;;-6.83;100.00
69848;BME280;57143;55.940;37.496;2022-12-04T12:21:22;102621.38;;;-6.85;100.00
69848;BME280;57143;55.940;37.496;2022-12-04T12:24:20;102593.63;;;-6.99;100.00
69848;BME280;57143;55.940;37.496;2022-12-04T12:26:57;102615.41;;;-6.91;100.00
69848;BME280;57143;55.940;37.496;2022-12-04T12:29:42;102613.72;;;-6.94;100.00
69848;BME280;57143;55.940;37.496;2022-12-04T12:32:24;102602.47;;;-7.02;100.00
69848;BME280;57143;55.940;37.496;2022-12-04T12:34:57;102601.72;;;-7.07;100.00
69848;BME280;57143;55.940;37.496;2022-12-04T12:37:27;102586.09;;;-7.15;100.00
69848;BME280;57143;55.940;37.496;2022-12-04T12:40:00;102600.03;;;-7.09;100.00
69848;BME280;57143;55.940;37.496;2022-12-04T12:42:33;102600.03;;;-7.09;100.00
69848;BME280;57143;55.940;37.496;2022-12-04T12:45:06;102588.91;;;-7.22;100.00
69848;BME280;57143;55.940;37.496;2022-12-04T12:47:44;102599.31;;;-7.18;100.00
69848;BME280;57143;55.940;37.496;2022-12-04T12:50:18;102597.63;;;-7.20;100.00
69848;BME280;57143;55.940;37.496;2022-12-04T12:52:53;102588.25;;;-7.33;100.00
69848;BME280;57143;55.940;37.496;2022-12-04T12:55:25;102589.94;;;-7.29;100.00